sensor_id;sensor_type;location;lat;lon;timestamp;pressure;altitude;pressure_sealevel;temperature;humidity
21574;BME280;10948;48.706;9.258;2023-04-08T00:02:06;97992.97;;;10.43;100.00
21574;BME280;10948;48.706;9.258;2023-04-08T00:04:31;97989.97;;;10.49;100.00
21574;BME280;10948;48.706;9.258;2023-04-08T00:06:57;97984.97;;;10.46;100.00
21574;BME280;10948;48.706;9.258;2023-04-08T00:09:22;97981.03;;;10.39;100.00
21574;BME280;10948;48.706;9.258;2023-04-08T00:11:47;97982.03;;;10.52;100.00
21574;BME280;10948;48.706;9.258;2023-04-08T00:14:12;97983.88;;;10.50;100.00
21574;BME280;10948;48.706;9.258;2023-04-08T00:16:37;97979.81;;;10.60;100.00
21574;BME280;10948;48.706;9.258;2023-04-08T00:19:03;97986.88;;;10.58;100.00
21574;BME280;10948;48.706;9.258;2023-04-08T00:21:30;97992.44;;;10.52;100.00
21574;BME280;10948;48.706;9.258;2023-04-08T00:23:55;97990.84;;;10.50;100.00
21574;BME280;10948;48.706;9.258;2023-04-08T00:26:20;97982.03;;;10.52;100.00
21574;BME280;10948;48.706;9.258;2023-04-08T00:28:46;97983.38;;;10.44;100.00
21574;BME280;10948;48.706;9.258;2023-04-08T00:31:11;97977.34;;;10.43;100.00
21574;BME280;10948;48.706;9.258;2023-04-08T00:33:36;97987.38;;;10.49;100.00
21574;BME280;10948;48.706;9.258;2023-04-08T00:36:01;97990.34;;;10.43;100.00
21574;BME280;10948;48.706;9.258;2023-04-08T00:38:27;97986.56;;;10.33;100.00
21574;BME280;10948;48.706;9.258;2023-04-08T00:40:52;97991.09;;;10.45;100.00
21574;BME280;10948;48.706;9.258;2023-04-08T00:43:17;97990.50;;;10.40;100.00
21574;BME280;10948;48.706;9.258;2023-04-08T00:45:45;97999.75;;;10.30;100.00
21574;BME280;10948;48.706;9.258;2023-04-08T00:48:10;97996.63;;;10.39;100.00
21574;BME280;10948;48.706;9.258;2023-04-08T00:50:36;98004.38;;;10.25;100.00
21574;BME280;10948;48.706;9.258;2023-04-08T00:53:01;98002.84;;;10.37;100.00
21574;BME280;10948;48.706;9.258;2023-04-08T00:55:26;97999.31;;;10.22;100.00
21574;BME280;10948;48.706;9.258;2023-04-08T00:57:51;98007.72;;;10.27;100.00
21574;BME280;10948;48.706;9.258;2023-04-08T01:00:17;98006.03;;;10.26;100.00
21574;BME280;10948;48.706;9.258;2023-04-08T01:02:58;98004.28;;;10.27;100.00
21574;BME280;10948;48.706;9.258;2023-04-08T01:08:00;98008.56;;;10.28;100.00
21574;BME280;10948;48.706;9.258;2023-04-08T01:10:30;98001.03;;;10.23;100.00
21574;BME280;10948;48.706;9.258;2023-04-08T01:12:58;97999.75;;;10.30;100.00
21574;BME280;10948;48.706;9.258;2023-04-08T01:15:25;98008.13;;;10.35;100.00
21574;BME280;10948;48.706;9.258;2023-04-08T01:17:52;98005.84;;;10.29;100.00
21574;BME280;10948;48.706;9.258;2023-04-08T01:20:18;98001.19;;;10.20;100.00
21574;BME280;10948;48.706;9.258;2023-04-08T01:25:34;98010.72;;;10.35;100.00
21574;BME280;10948;48.706;9.258;2023-04-08T01:28:02;98012.44;;;10.21;100.00
21574;BME280;10948;48.706;9.258;2023-04-08T01:30:28;98010.25;;;10.29;100.00
21574;BME280;10948;48.706;9.258;2023-04-08T01:32:54;98006.97;;;10.25;100.00
21574;BME280;10948;48.706;9.258;2023-04-08T01:35:20;98002.44;;;10.29;100.00
21574;BME280;10948;48.706;9.258;2023-04-08T01:37:46;98001.31;;;10.33;100.00
21574;BME280;10948;48.706;9.258;2023-04-08T01:40:13;98000.66;;;10.29;100.00
21574;BME280;10948;48.706;9.258;2023-04-08T01:42:39;98003.19;;;10.31;100.00
21574;BME280;10948;48.706;9.258;2023-04-08T01:45:05;98003.63;;;10.23;100.00
21574;BME280;10948;48.706;9.258;2023-04-08T01:47:31;98002.44;;;10.29;100.00
21574;BME280;10948;48.706;9.258;2023-04-08T01:49:58;97999.16;;;10.25;100.00
21574;BME280;10948;48.706;9.258;2023-04-08T01:52:24;98002.69;;;10.24;100.00
21574;BME280;10948;48.706;9.258;2023-04-08T01:54:49;98002.69;;;10.24;100.00
21574;BME280;10948;48.706;9.258;2023-04-08T01:57:16;98003.34;;;10.12;100.00
21574;BME280;10948;48.706;9.258;2023-04-08T01:59:43;97994.44;;;10.16;100.00
21574;BME280;10948;48.706;9.258;2023-04-08T02:02:11;97997.66;;;10.21;100.00
21574;BME280;10948;48.706;9.258;2023-04-08T02:04:37;98000.69;;;10.14;100.00
21574;BME280;10948;48.706;9.258;2023-04-08T02:07:02;97993.03;;;10.11;100.00
21574;BME280;10948;48.706;9.258;2023-04-08T02:09:28;97992.97;;;10.12;100.00
21574;BME280;10948;48.706;9.258;2023-04-08T02:11:53;98000.16;;;10.07;100.00
21574;BME280;10948;48.706;9.258;2023-04-08T02:14:20;98002.44;;;10.13;100.00
21574;BME280;10948;48.706;9.258;2023-04-08T02:16:53;98005.38;;;10.07;100.00
21574;BME280;10948;48.706;9.258;2023-04-08T02:19:24;98000.00;;;10.10;100.00
21574;BME280;10948;48.706;9.258;2023-04-08T02:21:57;98001.94;;;10.07;100.00
21574;BME280;10948;48.706;9.258;2023-04-08T02:24:23;98002.31;;;9.99;100.00
21574;BME280;10948;48.706;9.258;2023-04-08T02:26:50;98001.25;;;10.03;100.00
21574;BME280;10948;48.706;9.258;2023-04-08T02:29:16;97997.78;;;10.03;100.00
21574;BME280;10948;48.706;9.258;2023-04-08T02:31:42;98008.50;;;9.97;100.00
21574;BME280;10948;48.706;9.258;2023-04-08T02:34:11;98003.97;;;10.00;100.00
21574;BME280;10948;48.706;9.258;2023-04-08T02:36:37;98001.56;;;10.13;100.00
21574;BME280;10948;48.706;9.258;2023-04-08T02:39:04;98000.34;;;10.04;100.00
21574;BME280;10948;48.706;9.258;2023-04-08T02:41:30;97996.81;;;10.05;100.00
21574;BME280;10948;48.706;9.258;2023-04-08T02:43:55;98003.31;;;9.97;100.00
21574;BME280;10948;48.706;9.258;2023-04-08T02:46:21;98006.66;;;9.99;100.00
21574;BME280;10948;48.706;9.258;2023-04-08T02:48:46;98012.72;;;9.99;100.00
21574;BME280;10948;48.706;9.258;2023-04-08T02:51:11;98000.63;;;9.98;100.00
21574;BME280;10948;48.706;9.258;2023-04-08T02:53:37;98008.16;;;9.87;100.00
21574;BME280;10948;48.706;9.258;2023-04-08T02:56:02;98005.22;;;9.93;100.00
21574;BME280;10948;48.706;9.258;2023-04-08T02:58:27;98010.38;;;9.95;100.00
21574;BME280;10948;48.706;9.258;2023-04-08T03:00:52;98007.09;;;9.91;100.00
21574;BME280;10948;48.706;9.258;2023-04-08T03:03:18;98008.75;;;9.92;100.00
21574;BME280;10948;48.706;9.258;2023-04-08T03:05:43;98006.63;;;9.83;100.00
21574;BME280;10948;48.706;9.258;2023-04-08T03:08:08;98015.63;;;9.93;100.00
21574;BME280;10948;48.706;9.258;2023-04-08T03:10:33;98009.16;;;9.85;100.00
21574;BME280;10948;48.706;9.258;2023-04-08T03:12:59;98010.34;;;9.79;100.00
21574;BME280;10948;48.706;9.258;2023-04-08T03:15:24;98007.34;;;9.87;100.00
21574;BME280;10948;48.706;9.258;2023-04-08T03:17:49;98010.63;;;9.90;100.00
21574;BME280;10948;48.706;9.258;2023-04-08T03:20:14;98005.97;;;9.80;100.00
21574;BME280;10948;48.706;9.258;2023-04-08T03:22:40;98008.13;;;9.72;100.00
21574;BME280;10948;48.706;9.258;2023-04-08T03:25:05;98012.59;;;9.85;100.00
21574;BME280;10948;48.706;9.258;2023-04-08T03:27:30;98014.53;;;9.82;100.00
21574;BME280;10948;48.706;9.258;2023-04-08T03:29:56;98014.53;;;9.82;100.00
21574;BME280;10948;48.706;9.258;2023-04-08T03:32:22;98011.09;;;9.81;100.00
21574;BME280;10948;48.706;9.258;2023-04-08T03:34:47;98016.13;;;9.84;100.00
21574;BME280;10948;48.706;9.258;2023-04-08T03:37:15;98018.13;;;9.79;100.00
21574;BME280;10948;48.706;9.258;2023-04-08T03:39:40;98012.19;;;9.77;100.00
21574;BME280;10948;48.706;9.258;2023-04-08T03:42:05;98017.81;;;9.85;100.00
21574;BME280;10948;48.706;9.258;2023-04-08T03:44:30;98025.25;;;9.76;100.00
21574;BME280;10948;48.706;9.258;2023-04-08T03:46:56;98022.56;;;9.77;100.00
21574;BME280;10948;48.706;9.258;2023-04-08T03:49:21;98022.56;;;9.77;100.00
21574;BME280;10948;48.706;9.258;2023-04-08T03:51:46;98017.84;;;9.68;100.00
21574;BME280;10948;48.706;9.258;2023-04-08T03:54:13;98014.31;;;9.69;100.00
21574;BME280;10948;48.706;9.258;2023-04-08T03:56:38;98011.03;;;9.66;100.00
21574;BME280;10948;48.706;9.258;2023-04-08T03:59:04;98011.56;;;9.72;100.00
21574;BME280;10948;48.706;9.258;2023-04-08T04:01:29;98013.97;;;9.60;100.00
21574;BME280;10948;48.706;9.258;2023-04-08T04:03:56;98016.34;;;9.64;100.00
21574;BME280;10948;48.706;9.258;2023-04-08T04:06:21;98012.81;;;9.65;100.00
21574;BME280;10948;48.706;9.258;2023-04-08T04:08:46;98016.16;;;9.67;100.00
21574;BME280;10948;48.706;9.258;2023-04-08T04:11:12;98015.66;;;9.76;100.00
21574;BME280;10948;48.706;9.258;2023-04-08T04:13:37;98013.13;;;9.59;100.00
21574;BME280;10948;48.706;9.258;2023-04-08T04:16:02;98016.50;;;9.61;100.00
21574;BME280;10948;48.706;9.258;2023-04-08T04:18:27;98019.09;;;9.61;100.00
21574;BME280;10948;48.706;9.258;2023-04-08T04:20:53;98018.16;;;9.62;100.00
21574;BME280;10948;48.706;9.258;2023-04-08T04:23:18;98017.47;;;9.59;100.00
21574;BME280;10948;48.706;9.258;2023-04-08T04:25:43;98012.38;;;9.57;100.00
21574;BME280;10948;48.706;9.258;2023-04-08T04:28:08;98018.34;;;9.59;100.00
21574;BME280;10948;48.706;9.258;2023-04-08T04:30:37;98022.00;;;9.55;100.00
21574;BME280;10948;48.706;9.258;2023-04-08T04:33:02;98022.00;;;9.55;100.00
21574;BME280;10948;48.706;9.258;2023-04-08T04:35:28;98034.22;;;9.53;100.00
21574;BME280;10948;48.706;9.258;2023-04-08T04:37:53;98026.19;;;9.58;100.00
21574;BME280;10948;48.706;9.258;2023-04-08T04:40:18;98032.56;;;9.52;100.00
21574;BME280;10948;48.706;9.258;2023-04-08T04:42:43;98028.03;;;9.56;100.00
21574;BME280;10948;48.706;9.258;2023-04-08T04:45:09;98032.25;;;9.58;100.00
21574;BME280;10948;48.706;9.258;2023-04-08T04:47:34;98032.88;;;9.46;100.00
21574;BME280;10948;48.706;9.258;2023-04-08T04:49:59;98039.19;;;9.58;100.00
21574;BME280;10948;48.706;9.258;2023-04-08T04:52:25;98037.22;;;9.46;100.00
21574;BME280;10948;48.706;9.258;2023-04-08T04:54:50;98041.09;;;9.54;100.00
21574;BME280;10948;48.706;9.258;2023-04-08T04:57:15;98038.22;;;9.43;100.00
21574;BME280;10948;48.706;9.258;2023-04-08T04:59:41;98040.19;;;9.55;100.00
21574;BME280;10948;48.706;9.258;2023-04-08T05:02:06;98049.81;;;9.53;100.00
21574;BME280;10948;48.706;9.258;2023-04-08T05:04:31;98049.06;;;9.51;100.00
21574;BME280;10948;48.706;9.258;2023-04-08T05:06:58;98050.75;;;9.52;100.00
21574;BME280;10948;48.706;9.258;2023-04-08T05:09:23;98062.19;;;9.48;100.00
21574;BME280;10948;48.706;9.258;2023-04-08T05:11:48;98059.59;;;9.48;100.00
21574;BME280;10948;48.706;9.258;2023-04-08T05:14:14;98058.69;;;9.49;100.00
21574;BME280;10948;48.706;9.258;2023-04-08T05:16:39;98056.69;;;9.54;100.00
21574;BME280;10948;48.706;9.258;2023-04-08T05:19:05;98057.19;;;9.45;100.00
21574;BME280;10948;48.706;9.258;2023-04-08T05:21:30;98060.97;;;9.55;100.00
21574;BME280;10948;48.706;9.258;2023-04-08T05:23:56;98063.66;;;9.54;100.00
21574;BME280;10948;48.706;9.258;2023-04-08T05:26:22;98061.38;;;9.48;100.00
21574;BME280;10948;48.706;9.258;2023-04-08T05:28:47;98062.19;;;9.48;100.00
21574;BME280;10948;48.706;9.258;2023-04-08T05:31:16;98064.50;;;9.54;100.00
21574;BME280;10948;48.706;9.258;2023-04-08T05:33:42;98064.09;;;9.62;100.00
21574;BME280;10948;48.706;9.258;2023-04-08T05:36:07;98066.09;;;9.57;100.00
21574;BME280;10948;48.706;9.258;2023-04-08T05:38:32;98075.19;;;9.65;100.00
21574;BME280;10948;48.706;9.258;2023-04-08T05:40:58;98071.97;;;9.60;100.00
21574;BME280;10948;48.706;9.258;2023-04-08T05:43:23;98078.78;;;9.63;100.00
21574;BME280;10948;48.706;9.258;2023-04-08T05:45:48;98079.16;;;9.72;100.00
21574;BME280;10948;48.706;9.258;2023-04-08T05:48:14;98076.69;;;9.69;100.00
21574;BME280;10948;48.706;9.258;2023-04-08T05:50:39;98073.03;;;9.73;100.00
21574;BME280;10948;48.706;9.258;2023-04-08T05:53:04;98082.06;;;9.66;100.00
21574;BME280;10948;48.706;9.258;2023-04-08T05:55:30;98074.69;;;9.74;100.00
21574;BME280;10948;48.706;9.258;2023-04-08T05:57:55;98075.56;;;9.75;100.00
21574;BME280;10948;48.706;9.258;2023-04-08T06:00:20;98090.47;;;9.71;100.00
21574;BME280;10948;48.706;9.258;2023-04-08T06:02:45;98089.50;;;9.89;100.00
21574;BME280;10948;48.706;9.258;2023-04-08T06:05:11;98094.84;;;9.86;100.00
21574;BME280;10948;48.706;9.258;2023-04-08T06:07:36;98095.94;;;9.82;100.00
21574;BME280;10948;48.706;9.258;2023-04-08T06:10:01;98101.91;;;9.84;100.00
21574;BME280;10948;48.706;9.258;2023-04-08T06:12:26;98099.06;;;9.89;100.00
21574;BME280;10948;48.706;9.258;2023-04-08T06:14:52;98105.31;;;9.85;100.00
21574;BME280;10948;48.706;9.258;2023-04-08T06:17:18;98103.41;;;9.88;100.00
21574;BME280;10948;48.706;9.258;2023-04-08T06:19:43;98105.25;;;9.86;100.00
21574;BME280;10948;48.706;9.258;2023-04-08T06:22:08;98109.28;;;9.92;100.00
21574;BME280;10948;48.706;9.258;2023-04-08T06:24:33;98113.81;;;9.88;100.00
21574;BME280;10948;48.706;9.258;2023-04-08T06:26:58;98112.97;;;9.88;100.00
21574;BME280;10948;48.706;9.258;2023-04-08T06:29:24;98113.81;;;9.88;100.00
21574;BME280;10948;48.706;9.258;2023-04-08T06:31:49;98117.63;;;9.81;100.00
21574;BME280;10948;48.706;9.258;2023-04-08T06:34:15;98116.16;;;9.93;100.00
21574;BME280;10948;48.706;9.258;2023-04-08T06:36:40;98109.03;;;9.96;100.00
21574;BME280;10948;48.706;9.258;2023-04-08T06:39:05;98117.69;;;9.97;100.00
21574;BME280;10948;48.706;9.258;2023-04-08T06:41:31;98117.91;;;10.09;100.00
21574;BME280;10948;48.706;9.258;2023-04-08T06:43:56;98120.97;;;10.17;100.00
21574;BME280;10948;48.706;9.258;2023-04-08T06:46:21;98114.97;;;10.32;100.00
21574;BME280;10948;48.706;9.258;2023-04-08T06:48:46;98118.63;;;10.28;100.00
21574;BME280;10948;48.706;9.258;2023-04-08T06:51:12;98122.13;;;10.44;100.00
21574;BME280;10948;48.706;9.258;2023-04-08T06:53:37;98129.22;;;10.25;100.00
21574;BME280;10948;48.706;9.258;2023-04-08T06:56:02;98122.19;;;10.43;100.00
21574;BME280;10948;48.706;9.258;2023-04-08T06:58:27;98125.53;;;10.45;100.00
21574;BME280;10948;48.706;9.258;2023-04-08T07:00:53;98129.91;;;10.44;100.00
21574;BME280;10948;48.706;9.258;2023-04-08T07:03:22;98132.06;;;10.36;100.00
21574;BME280;10948;48.706;9.258;2023-04-08T07:05:47;98131.16;;;10.37;100.00
21574;BME280;10948;48.706;9.258;2023-04-08T07:08:12;98128.72;;;10.34;100.00
21574;BME280;10948;48.706;9.258;2023-04-08T07:10:38;98133.91;;;10.34;100.00
21574;BME280;10948;48.706;9.258;2023-04-08T07:13:03;98134.59;;;10.38;100.00
21574;BME280;10948;48.706;9.258;2023-04-08T07:15:28;98137.44;;;10.33;100.00
21574;BME280;10948;48.706;9.258;2023-04-08T07:17:53;98135.59;;;10.35;100.00
21574;BME280;10948;48.706;9.258;2023-04-08T07:20:22;98139.78;;;10.38;100.00
21574;BME280;10948;48.706;9.258;2023-04-08T07:22:48;98147.22;;;10.45;100.00
21574;BME280;10948;48.706;9.258;2023-04-08T07:25:14;98140.00;;;10.50;100.00
21574;BME280;10948;48.706;9.258;2023-04-08T07:27:40;98150.72;;;10.44;100.00
21574;BME280;10948;48.706;9.258;2023-04-08T07:30:07;98149.88;;;10.44;100.00
21574;BME280;10948;48.706;9.258;2023-04-08T07:32:32;98154.59;;;10.53;100.00
21574;BME280;10948;48.706;9.258;2023-04-08T07:34:58;98148.06;;;10.61;100.00
21574;BME280;10948;48.706;9.258;2023-04-08T07:37:24;98151.19;;;10.68;100.00
21574;BME280;10948;48.706;9.258;2023-04-08T07:39:49;98151.25;;;10.66;100.00
21574;BME280;10948;48.706;9.258;2023-04-08T07:42:15;98152.78;;;10.70;100.00
21574;BME280;10948;48.706;9.258;2023-04-08T07:44:40;98153.59;;;10.86;100.00
21574;BME280;10948;48.706;9.258;2023-04-08T07:47:05;98148.00;;;10.93;100.00
21574;BME280;10948;48.706;9.258;2023-04-08T07:49:31;98157.63;;;11.07;100.00
21574;BME280;10948;48.706;9.258;2023-04-08T07:51:56;98152.59;;;11.19;100.00
21574;BME280;10948;48.706;9.258;2023-04-08T07:54:22;98157.53;;;11.24;100.00
21574;BME280;10948;48.706;9.258;2023-04-08T07:56:47;98153.88;;;11.42;100.00
21574;BME280;10948;48.706;9.258;2023-04-08T07:59:12;98151.41;;;11.70;100.00
21574;BME280;10948;48.706;9.258;2023-04-08T08:01:37;98158.47;;;11.82;100.00
21574;BME280;10948;48.706;9.258;2023-04-08T08:04:03;98159.44;;;11.95;100.00
21574;BME280;10948;48.706;9.258;2023-04-08T08:06:28;98151.44;;;11.84;100.00
21574;BME280;10948;48.706;9.258;2023-04-08T08:08:53;98147.53;;;11.91;99.07
21574;BME280;10948;48.706;9.258;2023-04-08T08:11:18;98144.22;;;12.03;98.37
21574;BME280;10948;48.706;9.258;2023-04-08T08:13:45;98147.63;;;12.03;98.07
21574;BME280;10948;48.706;9.258;2023-04-08T08:16:10;98151.63;;;12.09;98.02
21574;BME280;10948;48.706;9.258;2023-04-08T08:18:36;98158.56;;;12.10;96.83
21574;BME280;10948;48.706;9.258;2023-04-08T08:21:01;98150.53;;;12.13;96.13
21574;BME280;10948;48.706;9.258;2023-04-08T08:23:27;98163.41;;;12.16;96.91
21574;BME280;10948;48.706;9.258;2023-04-08T08:26:27;98160.56;;;11.91;96.89
21574;BME280;10948;48.706;9.258;2023-04-08T08:28:47;98167.47;;;12.06;96.14
21574;BME280;10948;48.706;9.258;2023-04-08T08:31:12;98171.38;;;11.99;96.61
21574;BME280;10948;48.706;9.258;2023-04-08T08:33:38;98177.06;;;12.05;96.24
21574;BME280;10948;48.706;9.258;2023-04-08T08:36:03;98174.06;;;11.97;96.56
21574;BME280;10948;48.706;9.258;2023-04-08T08:38:29;98175.09;;;11.95;96.65
21574;BME280;10948;48.706;9.258;2023-04-08T08:40:55;98176.41;;;12.02;95.88
21574;BME280;10948;48.706;9.258;2023-04-08T08:43:21;98179.94;;;12.01;95.98
21574;BME280;10948;48.706;9.258;2023-04-08T08:45:46;98179.59;;;12.21;93.65
21574;BME280;10948;48.706;9.258;2023-04-08T08:48:11;98182.63;;;12.43;93.09
21574;BME280;10948;48.706;9.258;2023-04-08T08:50:37;98173.84;;;12.58;92.72
21574;BME280;10948;48.706;9.258;2023-04-08T08:53:02;98170.88;;;12.64;92.00
21574;BME280;10948;48.706;9.258;2023-04-08T08:55:29;98178.84;;;12.75;90.24
21574;BME280;10948;48.706;9.258;2023-04-08T08:57:55;98179.03;;;13.00;87.80
21574;BME280;10948;48.706;9.258;2023-04-08T09:00:29;98175.56;;;13.79;82.17
21574;BME280;10948;48.706;9.258;2023-04-08T09:02:55;98188.19;;;13.99;79.90
21574;BME280;10948;48.706;9.258;2023-04-08T09:05:20;98188.00;;;14.27;79.67
21574;BME280;10948;48.706;9.258;2023-04-08T09:07:45;98186.13;;;14.54;77.07
21574;BME280;10948;48.706;9.258;2023-04-08T09:10:10;98181.16;;;14.87;76.67
21574;BME280;10948;48.706;9.258;2023-04-08T09:12:43;98180.25;;;14.75;73.44
21574;BME280;10948;48.706;9.258;2023-04-08T09:15:17;98185.56;;;14.86;73.06
21574;BME280;10948;48.706;9.258;2023-04-08T09:17:42;98181.09;;;15.12;72.81
21574;BME280;10948;48.706;9.258;2023-04-08T09:20:10;98181.63;;;15.17;71.70
21574;BME280;10948;48.706;9.258;2023-04-08T09:25:24;98186.63;;;15.79;69.36
21574;BME280;10948;48.706;9.258;2023-04-08T09:27:50;98185.78;;;16.13;65.69
21574;BME280;10948;48.706;9.258;2023-04-08T09:30:16;98182.34;;;16.35;63.10
21574;BME280;10948;48.706;9.258;2023-04-08T09:32:49;98187.44;;;16.49;63.07
21574;BME280;10948;48.706;9.258;2023-04-08T09:35:14;98190.53;;;16.76;63.20
21574;BME280;10948;48.706;9.258;2023-04-08T09:37:41;98190.53;;;16.98;62.55
21574;BME280;10948;48.706;9.258;2023-04-08T09:40:06;98191.25;;;16.67;60.97
21574;BME280;10948;48.706;9.258;2023-04-08T09:42:32;98188.00;;;16.96;58.87
21574;BME280;10948;48.706;9.258;2023-04-08T09:44:58;98182.84;;;17.27;57.59
21574;BME280;10948;48.706;9.258;2023-04-08T09:47:24;98186.06;;;18.05;55.32
21574;BME280;10948;48.706;9.258;2023-04-08T09:49:54;98173.81;;;17.83;55.87
21574;BME280;10948;48.706;9.258;2023-04-08T09:52:38;98176.28;;;18.16;53.80
21574;BME280;10948;48.706;9.258;2023-04-08T09:55:11;98186.81;;;17.96;52.58
21574;BME280;10948;48.706;9.258;2023-04-08T09:57:43;98179.56;;;18.29;51.97
21574;BME280;10948;48.706;9.258;2023-04-08T10:02:40;98185.72;;;19.20;51.46
21574;BME280;10948;48.706;9.258;2023-04-08T10:05:09;98178.38;;;19.23;49.43
21574;BME280;10948;48.706;9.258;2023-04-08T10:07:36;98176.38;;;19.16;49.46
21574;BME280;10948;48.706;9.258;2023-04-08T10:10:02;98192.47;;;19.13;49.98
21574;BME280;10948;48.706;9.258;2023-04-08T10:12:27;98189.56;;;18.76;48.75
21574;BME280;10948;48.706;9.258;2023-04-08T10:17:37;98190.16;;;17.98;49.85
21574;BME280;10948;48.706;9.258;2023-04-08T10:20:02;98183.16;;;18.28;50.27
21574;BME280;10948;48.706;9.258;2023-04-08T10:27:38;98178.81;;;17.66;50.80
21574;BME280;10948;48.706;9.258;2023-04-08T10:30:11;98183.78;;;17.26;52.43
21574;BME280;10948;48.706;9.258;2023-04-08T10:32:50;98179.16;;;17.19;52.26
21574;BME280;10948;48.706;9.258;2023-04-08T10:35:15;98190.53;;;16.87;52.08
21574;BME280;10948;48.706;9.258;2023-04-08T10:37:41;98186.72;;;16.69;52.86
21574;BME280;10948;48.706;9.258;2023-04-08T10:40:07;98184.53;;;16.41;52.63
21574;BME280;10948;48.706;9.258;2023-04-08T10:42:42;98180.19;;;16.29;52.55
21574;BME280;10948;48.706;9.258;2023-04-08T10:45:07;98186.22;;;16.07;52.08
21574;BME280;10948;48.706;9.258;2023-04-08T10:47:33;98183.69;;;15.95;52.40
21574;BME280;10948;48.706;9.258;2023-04-08T10:49:58;98189.09;;;15.70;52.69
21574;BME280;10948;48.706;9.258;2023-04-08T10:52:23;98185.88;;;15.54;53.07
21574;BME280;10948;48.706;9.258;2023-04-08T10:54:51;98192.69;;;15.33;52.51
21574;BME280;10948;48.706;9.258;2023-04-08T10:57:22;98188.47;;;15.43;53.08
21574;BME280;10948;48.706;9.258;2023-04-08T10:59:48;98192.09;;;15.17;52.39
21574;BME280;10948;48.706;9.258;2023-04-08T11:02:13;98188.31;;;15.33;53.09
21574;BME280;10948;48.706;9.258;2023-04-08T11:04:40;98188.59;;;15.05;53.55
21574;BME280;10948;48.706;9.258;2023-04-08T11:07:06;98189.88;;;14.87;53.93
21574;BME280;10948;48.706;9.258;2023-04-08T11:09:33;98192.41;;;14.51;54.11
21574;BME280;10948;48.706;9.258;2023-04-08T11:11:58;98199.63;;;14.73;54.45
21574;BME280;10948;48.706;9.258;2023-04-08T11:14:24;98194.53;;;14.46;53.21
21574;BME280;10948;48.706;9.258;2023-04-08T11:16:50;98199.31;;;14.65;53.59
21574;BME280;10948;48.706;9.258;2023-04-08T11:19:15;98193.34;;;14.75;52.53
21574;BME280;10948;48.706;9.258;2023-04-08T11:21:41;98192.38;;;14.89;53.09
21574;BME280;10948;48.706;9.258;2023-04-08T11:24:09;98189.44;;;14.93;53.19
21574;BME280;10948;48.706;9.258;2023-04-08T11:26:40;98188.41;;;14.83;52.50
21574;BME280;10948;48.706;9.258;2023-04-08T11:29:07;98193.25;;;14.77;52.73
21574;BME280;10948;48.706;9.258;2023-04-08T11:31:36;98190.06;;;14.97;52.59
21574;BME280;10948;48.706;9.258;2023-04-08T11:34:02;98189.44;;;14.81;52.94
21574;BME280;10948;48.706;9.258;2023-04-08T11:36:27;98191.53;;;14.88;53.09
21574;BME280;10948;48.706;9.258;2023-04-08T11:38:53;98187.22;;;15.00;53.09
21574;BME280;10948;48.706;9.258;2023-04-08T11:41:19;98186.69;;;14.95;52.57
21574;BME280;10948;48.706;9.258;2023-04-08T11:43:49;98188.38;;;14.96;52.69
21574;BME280;10948;48.706;9.258;2023-04-08T11:46:15;98191.38;;;14.66;51.84
21574;BME280;10948;48.706;9.258;2023-04-08T11:48:41;98197.03;;;14.23;51.72
21574;BME280;10948;48.706;9.258;2023-04-08T11:51:20;98193.03;;;14.55;51.60
21574;BME280;10948;48.706;9.258;2023-04-08T11:53:45;98188.22;;;14.61;52.15
21574;BME280;10948;48.706;9.258;2023-04-08T11:56:16;98184.88;;;14.47;51.75
21574;BME280;10948;48.706;9.258;2023-04-08T11:58:42;98181.00;;;14.65;52.21
21574;BME280;10948;48.706;9.258;2023-04-08T12:01:07;98186.75;;;14.57;52.14
21574;BME280;10948;48.706;9.258;2023-04-08T12:03:32;98186.97;;;14.54;52.15
21574;BME280;10948;48.706;9.258;2023-04-08T12:05:58;98182.78;;;14.52;52.28
21574;BME280;10948;48.706;9.258;2023-04-08T12:08:23;98189.09;;;14.62;52.11
21574;BME280;10948;48.706;9.258;2023-04-08T12:10:48;98192.41;;;14.64;52.22
21574;BME280;10948;48.706;9.258;2023-04-08T12:13:14;98190.53;;;14.66;52.45
21574;BME280;10948;48.706;9.258;2023-04-08T12:15:39;98190.94;;;14.35;52.84
21574;BME280;10948;48.706;9.258;2023-04-08T12:18:05;98187.41;;;14.36;53.44
21574;BME280;10948;48.706;9.258;2023-04-08T12:20:30;98195.56;;;14.44;53.73
21574;BME280;10948;48.706;9.258;2023-04-08T12:22:55;98196.41;;;14.32;54.38
21574;BME280;10948;48.706;9.258;2023-04-08T12:25:20;98199.78;;;14.46;54.31
21574;BME280;10948;48.706;9.258;2023-04-08T12:27:46;98203.22;;;14.47;54.48
21574;BME280;10948;48.706;9.258;2023-04-08T12:30:11;98205.53;;;14.64;55.12
21574;BME280;10948;48.706;9.258;2023-04-08T12:32:37;98205.59;;;14.75;55.21
21574;BME280;10948;48.706;9.258;2023-04-08T12:35:02;98203.75;;;14.52;55.68
21574;BME280;10948;48.706;9.258;2023-04-08T12:37:27;98202.28;;;14.60;55.31
21574;BME280;10948;48.706;9.258;2023-04-08T12:39:53;98203.31;;;14.58;54.63
21574;BME280;10948;48.706;9.258;2023-04-08T12:42:18;98192.38;;;14.89;54.99
21574;BME280;10948;48.706;9.258;2023-04-08T12:44:43;98195.41;;;14.95;55.24
21574;BME280;10948;48.706;9.258;2023-04-08T12:47:08;98192.03;;;15.06;54.76
21574;BME280;10948;48.706;9.258;2023-04-08T12:49:34;98194.25;;;14.87;53.64
21574;BME280;10948;48.706;9.258;2023-04-08T12:51:59;98194.22;;;15.12;53.87
21574;BME280;10948;48.706;9.258;2023-04-08T12:54:24;98196.75;;;15.01;54.21
21574;BME280;10948;48.706;9.258;2023-04-08T12:56:49;98192.19;;;14.79;54.32
21574;BME280;10948;48.706;9.258;2023-04-08T12:59:15;98192.41;;;14.76;54.57
21574;BME280;10948;48.706;9.258;2023-04-08T13:01:40;98185.44;;;14.88;54.26
21574;BME280;10948;48.706;9.258;2023-04-08T13:04:06;98193.13;;;14.66;54.33
21574;BME280;10948;48.706;9.258;2023-04-08T13:06:31;98194.06;;;14.77;54.79
21574;BME280;10948;48.706;9.258;2023-04-08T13:08:56;98201.41;;;14.60;54.98
21574;BME280;10948;48.706;9.258;2023-04-08T13:11:22;98194.50;;;14.59;54.92